Enterprise, MS (39330)

12:48 PM CST on March 03, 2015 (GMT -0600)
Clarke Co. Airport (23M) | Change Station
CLOSE
Current Station
Personal Weather Station
Location: Quitman, MS
Elevation: 320 ft
Nearby Weather Stations

Elev 320 ft 32.08 °N, 88.74 °W | Updated 3 minutes ago

Overcast
Overcast
70.6 °F
Feels Like 70.6 °F
N
4.0
Wind Variable Wind from SE
Gusts 4.0 mph

Today
High -- | Low -- °F
--% Chance of Precip.
Yesterday
High -- | Low -- °F
Precip. -- in
6:20 AM 5:54 PM
Waxing Gibbous, 97% visible
Pressure 30.09 in
Visibility 10.0 miles
Clouds Scattered Clouds 1400 ft
Mostly Cloudy 2100 ft
Overcast 2800 ft
Dew Point 68 °F
Humidity 90%
Rainfall 0.00 in
Snow Depth Not available.
UV 2 out of 12
Pollen 6.80 out of 12
Air Quality Not available.
Flu Activity Not available.
SPECI KMEI 031838Z 18009KT 10SM SCT014 BKN021 OVC028 21/18 A3009 RMK AO2 T02110183

More Conditions Fewer Conditions

Pressure 30.09 in
Visibility 10.0 miles
Clouds Scattered Clouds 1400 ft
Mostly Cloudy 2100 ft
Overcast 2800 ft
Dew Point 68 °F
Humidity 90%
Rainfall 0.00 in
Snow Depth Not available.
UV 2 out of 12
Pollen 6.80 out of 12
Air Quality Not available.
Flu Activity Not available.
SPECI KMEI 031838Z 18009KT 10SM SCT014 BKN021 OVC028 21/18 A3009 RMK AO2 T02110183

More Conditions Fewer Conditions

10-Day Weather Forecast

Almanac

Astronomy

Mar. 03, 2015 Rise Set
Actual Time
Civil Twilight
Nautical Twilight
Astronomical Twilight
Moon
Length of Visible Light
Length of Day
Tomorrow will be .
, % of the Moon is Illuminated

Today's Extremes

State Highs State Lows

Community

WunderPhotos

Upload Photos

1,802,198 photos uploaded!

WunderBlogs® & News

Nearby

Air Quality

  Air Quality AQ Index Pollutant
Not available.

Snow Depth

Station Depth Elevation

Earthquake Activity

City Distance Mag. Time & Date
Minimum magnitude displayed is 2.5.

Coastal Water Temperatures

Place Temperature

Nearby Weather Stations